Maitland, Florida
Current Conditions -  °F | °C
As of 5:53 PM on Tuesday 21 Oct 2014 (Local Time) from KORL Reporting Station
Clear Clear  
Wind Chill: 83°   Ceiling: Unl
Heat Index: 85°   Visibility: 10mi
Dew Point: 66°   Wind: 6mph
Humidity: 56%   Direction: 350°N
Pressure: 29.91"   Gusts: NA
Location:  28.63°N, 81.36°W
Report Text: KORL 212153Z 35005KT 10SM CLR 28/19 A2991 RMK AO2 SLP131 T02830189
Loading
Personal Weather Stations






























Interactive Weather Map
Tropical Storm Tracking
New forecast layout! Learn more

10-Day Weather Forecast

Advertisements
Track Severe Weather on mobile